sensor_id;sensor_type;location;lat;lon;timestamp;temperature;humidity
16823;DHT22;8528;49.976;11.858;2023-04-03T00:01:17;1.50;99.90
16823;DHT22;8528;49.976;11.858;2023-04-03T00:03:44;1.50;99.90
16823;DHT22;8528;49.976;11.858;2023-04-03T00:06:12;1.60;99.90
16823;DHT22;8528;49.976;11.858;2023-04-03T00:08:40;1.60;99.90
16823;DHT22;8528;49.976;11.858;2023-04-03T00:11:08;1.60;99.90
16823;DHT22;8528;49.976;11.858;2023-04-03T00:13:35;1.60;99.90
16823;DHT22;8528;49.976;11.858;2023-04-03T00:16:03;1.60;99.90
16823;DHT22;8528;49.976;11.858;2023-04-03T00:18:29;1.70;99.90
16823;DHT22;8528;49.976;11.858;2023-04-03T00:20:56;1.70;99.90
16823;DHT22;8528;49.976;11.858;2023-04-03T00:23:24;1.70;99.90
16823;DHT22;8528;49.976;11.858;2023-04-03T00:25:51;1.70;99.90
16823;DHT22;8528;49.976;11.858;2023-04-03T00:28:18;1.70;99.90
16823;DHT22;8528;49.976;11.858;2023-04-03T00:30:45;1.70;99.90
16823;DHT22;8528;49.976;11.858;2023-04-03T00:33:12;1.80;99.90
16823;DHT22;8528;49.976;11.858;2023-04-03T00:35:40;1.80;99.90
16823;DHT22;8528;49.976;11.858;2023-04-03T00:38:07;1.80;99.90
16823;DHT22;8528;49.976;11.858;2023-04-03T00:40:37;1.80;99.90
16823;DHT22;8528;49.976;11.858;2023-04-03T00:43:17;1.80;99.90
16823;DHT22;8528;49.976;11.858;2023-04-03T00:45:48;1.70;99.90
16823;DHT22;8528;49.976;11.858;2023-04-03T00:51:08;1.70;99.90
16823;DHT22;8528;49.976;11.858;2023-04-03T00:53:40;1.70;99.90
16823;DHT22;8528;49.976;11.858;2023-04-03T00:56:11;1.80;99.90
16823;DHT22;8528;49.976;11.858;2023-04-03T00:59:04;1.80;99.90
16823;DHT22;8528;49.976;11.858;2023-04-03T01:01:29;1.70;99.90
16823;DHT22;8528;49.976;11.858;2023-04-03T01:03:59;1.70;99.90
16823;DHT22;8528;49.976;11.858;2023-04-03T01:06:29;1.70;99.90
16823;DHT22;8528;49.976;11.858;2023-04-03T01:08:59;1.70;99.90
16823;DHT22;8528;49.976;11.858;2023-04-03T01:11:26;1.70;99.90
16823;DHT22;8528;49.976;11.858;2023-04-03T01:13:53;1.70;99.90
16823;DHT22;8528;49.976;11.858;2023-04-03T01:16:20;1.70;99.90
16823;DHT22;8528;49.976;11.858;2023-04-03T01:18:47;1.70;99.90
16823;DHT22;8528;49.976;11.858;2023-04-03T01:24:13;1.60;99.90
16823;DHT22;8528;49.976;11.858;2023-04-03T01:26:43;1.60;99.90
16823;DHT22;8528;49.976;11.858;2023-04-03T01:29:10;1.60;99.90
16823;DHT22;8528;49.976;11.858;2023-04-03T01:31:48;1.60;99.90
16823;DHT22;8528;49.976;11.858;2023-04-03T01:34:15;1.60;99.90
16823;DHT22;8528;49.976;11.858;2023-04-03T01:36:42;1.70;99.90
16823;DHT22;8528;49.976;11.858;2023-04-03T01:39:09;1.70;99.90
16823;DHT22;8528;49.976;11.858;2023-04-03T01:41:36;1.70;99.90
16823;DHT22;8528;49.976;11.858;2023-04-03T01:44:03;1.70;99.90
16823;DHT22;8528;49.976;11.858;2023-04-03T01:46:30;1.70;99.90
16823;DHT22;8528;49.976;11.858;2023-04-03T01:48:57;1.60;99.90
16823;DHT22;8528;49.976;11.858;2023-04-03T01:51:24;1.60;99.90
16823;DHT22;8528;49.976;11.858;2023-04-03T01:53:51;1.60;99.90
16823;DHT22;8528;49.976;11.858;2023-04-03T01:56:18;1.50;99.90
16823;DHT22;8528;49.976;11.858;2023-04-03T01:58:45;1.50;99.90
16823;DHT22;8528;49.976;11.858;2023-04-03T02:01:12;1.50;99.90
16823;DHT22;8528;49.976;11.858;2023-04-03T02:03:38;1.50;99.90
16823;DHT22;8528;49.976;11.858;2023-04-03T02:06:06;1.50;99.90
16823;DHT22;8528;49.976;11.858;2023-04-03T02:08:33;1.40;99.90
16823;DHT22;8528;49.976;11.858;2023-04-03T02:10:59;1.40;99.90
16823;DHT22;8528;49.976;11.858;2023-04-03T02:13:27;1.40;99.90
16823;DHT22;8528;49.976;11.858;2023-04-03T02:15:54;1.40;99.90
16823;DHT22;8528;49.976;11.858;2023-04-03T02:18:21;1.40;99.90
16823;DHT22;8528;49.976;11.858;2023-04-03T02:20:48;1.40;99.90
16823;DHT22;8528;49.976;11.858;2023-04-03T02:23:15;1.40;99.90
16823;DHT22;8528;49.976;11.858;2023-04-03T02:25:42;1.40;99.90
16823;DHT22;8528;49.976;11.858;2023-04-03T02:28:08;1.40;99.90
16823;DHT22;8528;49.976;11.858;2023-04-03T02:30:35;1.40;99.90
16823;DHT22;8528;49.976;11.858;2023-04-03T02:33:02;1.30;99.90
16823;DHT22;8528;49.976;11.858;2023-04-03T02:35:29;1.30;99.90
16823;DHT22;8528;49.976;11.858;2023-04-03T02:37:56;1.30;99.90
16823;DHT22;8528;49.976;11.858;2023-04-03T02:40:23;1.20;99.90
16823;DHT22;8528;49.976;11.858;2023-04-03T02:42:50;1.30;99.90
16823;DHT22;8528;49.976;11.858;2023-04-03T02:45:17;1.30;99.90
16823;DHT22;8528;49.976;11.858;2023-04-03T02:47:44;1.30;99.90
16823;DHT22;8528;49.976;11.858;2023-04-03T02:50:11;1.30;99.90
16823;DHT22;8528;49.976;11.858;2023-04-03T02:52:38;1.30;99.90
16823;DHT22;8528;49.976;11.858;2023-04-03T02:55:05;1.30;99.90
16823;DHT22;8528;49.976;11.858;2023-04-03T02:57:32;1.40;99.90
16823;DHT22;8528;49.976;11.858;2023-04-03T02:59:59;1.40;99.90
16823;DHT22;8528;49.976;11.858;2023-04-03T03:02:26;1.30;99.90
16823;DHT22;8528;49.976;11.858;2023-04-03T03:04:53;1.30;99.90
16823;DHT22;8528;49.976;11.858;2023-04-03T03:07:20;1.40;99.90
16823;DHT22;8528;49.976;11.858;2023-04-03T03:09:46;1.30;99.90
16823;DHT22;8528;49.976;11.858;2023-04-03T03:12:13;1.30;99.90
16823;DHT22;8528;49.976;11.858;2023-04-03T03:14:41;1.30;99.90
16823;DHT22;8528;49.976;11.858;2023-04-03T03:17:09;1.30;99.90
16823;DHT22;8528;49.976;11.858;2023-04-03T03:19:36;1.30;99.90
16823;DHT22;8528;49.976;11.858;2023-04-03T03:22:03;1.30;99.90
16823;DHT22;8528;49.976;11.858;2023-04-03T03:24:29;1.30;99.90
16823;DHT22;8528;49.976;11.858;2023-04-03T03:26:56;1.20;99.90
16823;DHT22;8528;49.976;11.858;2023-04-03T03:29:23;1.20;99.90
16823;DHT22;8528;49.976;11.858;2023-04-03T03:31:50;1.20;99.90
16823;DHT22;8528;49.976;11.858;2023-04-03T03:34:17;1.10;99.90
16823;DHT22;8528;49.976;11.858;2023-04-03T03:36:44;1.20;99.90
16823;DHT22;8528;49.976;11.858;2023-04-03T03:39:12;1.20;99.90
16823;DHT22;8528;49.976;11.858;2023-04-03T03:41:39;1.20;99.90
16823;DHT22;8528;49.976;11.858;2023-04-03T03:44:06;1.20;99.90
16823;DHT22;8528;49.976;11.858;2023-04-03T03:46:33;1.20;99.90
16823;DHT22;8528;49.976;11.858;2023-04-03T03:49:00;1.20;99.90
16823;DHT22;8528;49.976;11.858;2023-04-03T03:51:27;1.10;99.90
16823;DHT22;8528;49.976;11.858;2023-04-03T03:53:54;1.10;99.90
16823;DHT22;8528;49.976;11.858;2023-04-03T03:56:21;1.10;99.90
16823;DHT22;8528;49.976;11.858;2023-04-03T03:58:48;1.10;99.90
16823;DHT22;8528;49.976;11.858;2023-04-03T04:01:16;1.00;99.90
16823;DHT22;8528;49.976;11.858;2023-04-03T04:03:43;0.90;99.90
16823;DHT22;8528;49.976;11.858;2023-04-03T04:06:10;0.90;99.90
16823;DHT22;8528;49.976;11.858;2023-04-03T04:08:37;1.00;99.90
16823;DHT22;8528;49.976;11.858;2023-04-03T04:11:04;0.80;99.90
16823;DHT22;8528;49.976;11.858;2023-04-03T04:13:31;0.80;99.90
16823;DHT22;8528;49.976;11.858;2023-04-03T04:15:58;0.80;99.90
16823;DHT22;8528;49.976;11.858;2023-04-03T04:18:25;0.90;99.90
16823;DHT22;8528;49.976;11.858;2023-04-03T04:20:52;0.90;99.90
16823;DHT22;8528;49.976;11.858;2023-04-03T04:23:19;0.90;99.90
16823;DHT22;8528;49.976;11.858;2023-04-03T04:25:47;0.80;99.90
16823;DHT22;8528;49.976;11.858;2023-04-03T04:28:15;0.80;99.90
16823;DHT22;8528;49.976;11.858;2023-04-03T04:30:41;0.80;99.90
16823;DHT22;8528;49.976;11.858;2023-04-03T04:33:09;0.80;99.90
16823;DHT22;8528;49.976;11.858;2023-04-03T04:35:36;0.80;99.90
16823;DHT22;8528;49.976;11.858;2023-04-03T04:38:04;0.80;99.90
16823;DHT22;8528;49.976;11.858;2023-04-03T04:40:31;0.80;99.90
16823;DHT22;8528;49.976;11.858;2023-04-03T04:42:57;0.80;99.90
16823;DHT22;8528;49.976;11.858;2023-04-03T04:45:24;0.70;99.90
16823;DHT22;8528;49.976;11.858;2023-04-03T04:47:51;0.70;99.90
16823;DHT22;8528;49.976;11.858;2023-04-03T04:50:19;0.70;99.90
16823;DHT22;8528;49.976;11.858;2023-04-03T04:52:46;0.60;99.90
16823;DHT22;8528;49.976;11.858;2023-04-03T04:55:13;0.70;99.90
16823;DHT22;8528;49.976;11.858;2023-04-03T04:57:39;0.70;99.90
16823;DHT22;8528;49.976;11.858;2023-04-03T05:00:07;0.60;99.90
16823;DHT22;8528;49.976;11.858;2023-04-03T05:02:34;0.70;99.90
16823;DHT22;8528;49.976;11.858;2023-04-03T05:05:01;0.70;99.90
16823;DHT22;8528;49.976;11.858;2023-04-03T05:07:30;0.80;99.90
16823;DHT22;8528;49.976;11.858;2023-04-03T05:09:57;0.80;99.90
16823;DHT22;8528;49.976;11.858;2023-04-03T05:12:24;0.80;99.90
16823;DHT22;8528;49.976;11.858;2023-04-03T05:14:51;0.90;99.90
16823;DHT22;8528;49.976;11.858;2023-04-03T05:17:17;0.90;99.90
16823;DHT22;8528;49.976;11.858;2023-04-03T05:19:44;0.90;99.90
16823;DHT22;8528;49.976;11.858;2023-04-03T05:22:12;0.90;99.90
16823;DHT22;8528;49.976;11.858;2023-04-03T05:24:38;0.90;99.90
16823;DHT22;8528;49.976;11.858;2023-04-03T05:27:05;0.90;99.90
16823;DHT22;8528;49.976;11.858;2023-04-03T05:29:32;0.90;99.90
16823;DHT22;8528;49.976;11.858;2023-04-03T05:31:59;1.00;99.90
16823;DHT22;8528;49.976;11.858;2023-04-03T05:34:26;1.10;99.90
16823;DHT22;8528;49.976;11.858;2023-04-03T05:36:53;1.10;99.90
16823;DHT22;8528;49.976;11.858;2023-04-03T05:39:20;1.10;99.90
16823;DHT22;8528;49.976;11.858;2023-04-03T05:41:47;1.10;99.90
16823;DHT22;8528;49.976;11.858;2023-04-03T05:44:14;1.20;99.90
16823;DHT22;8528;49.976;11.858;2023-04-03T05:46:41;1.10;99.90
16823;DHT22;8528;49.976;11.858;2023-04-03T05:49:08;1.00;99.90
16823;DHT22;8528;49.976;11.858;2023-04-03T05:51:37;1.10;99.90
16823;DHT22;8528;49.976;11.858;2023-04-03T05:54:25;0.90;99.90
16823;DHT22;8528;49.976;11.858;2023-04-03T05:56:52;0.90;99.90
16823;DHT22;8528;49.976;11.858;2023-04-03T05:59:20;0.90;99.90
16823;DHT22;8528;49.976;11.858;2023-04-03T06:01:47;0.90;99.90
16823;DHT22;8528;49.976;11.858;2023-04-03T06:04:15;0.90;99.90
16823;DHT22;8528;49.976;11.858;2023-04-03T06:06:50;0.80;99.90
16823;DHT22;8528;49.976;11.858;2023-04-03T06:09:24;0.90;99.90
16823;DHT22;8528;49.976;11.858;2023-04-03T06:11:52;0.90;99.90
16823;DHT22;8528;49.976;11.858;2023-04-03T06:14:19;1.20;99.90
16823;DHT22;8528;49.976;11.858;2023-04-03T06:16:46;1.30;99.90
16823;DHT22;8528;49.976;11.858;2023-04-03T06:19:14;1.50;99.90
16823;DHT22;8528;49.976;11.858;2023-04-03T06:21:41;1.40;99.90
16823;DHT22;8528;49.976;11.858;2023-04-03T06:24:07;1.50;99.90
16823;DHT22;8528;49.976;11.858;2023-04-03T06:26:34;1.60;99.90
16823;DHT22;8528;49.976;11.858;2023-04-03T06:29:02;1.70;99.90
16823;DHT22;8528;49.976;11.858;2023-04-03T06:31:29;1.80;99.90
16823;DHT22;8528;49.976;11.858;2023-04-03T06:33:56;2.00;99.90
16823;DHT22;8528;49.976;11.858;2023-04-03T06:36:23;2.30;99.90
16823;DHT22;8528;49.976;11.858;2023-04-03T06:38:50;2.90;99.90
16823;DHT22;8528;49.976;11.858;2023-04-03T06:41:17;3.70;99.90
16823;DHT22;8528;49.976;11.858;2023-04-03T06:43:44;4.60;99.90
16823;DHT22;8528;49.976;11.858;2023-04-03T06:46:19;5.10;99.90
16823;DHT22;8528;49.976;11.858;2023-04-03T06:48:48;6.40;99.90
16823;DHT22;8528;49.976;11.858;2023-04-03T06:51:26;7.30;99.90
16823;DHT22;8528;49.976;11.858;2023-04-03T06:53:55;8.50;99.80
16823;DHT22;8528;49.976;11.858;2023-04-03T06:56:23;9.10;94.30
16823;DHT22;8528;49.976;11.858;2023-04-03T06:58:50;9.10;93.30
16823;DHT22;8528;49.976;11.858;2023-04-03T07:01:18;8.40;92.60
16823;DHT22;8528;49.976;11.858;2023-04-03T07:03:48;8.20;94.10
16823;DHT22;8528;49.976;11.858;2023-04-03T07:06:17;7.90;92.80
16823;DHT22;8528;49.976;11.858;2023-04-03T07:08:45;7.50;94.40
16823;DHT22;8528;49.976;11.858;2023-04-03T07:11:13;7.50;94.90
16823;DHT22;8528;49.976;11.858;2023-04-03T07:13:40;8.10;93.20
16823;DHT22;8528;49.976;11.858;2023-04-03T07:16:07;8.10;91.20
16823;DHT22;8528;49.976;11.858;2023-04-03T07:21:48;9.20;90.10
16823;DHT22;8528;49.976;11.858;2023-04-03T07:24:15;10.40;88.40
16823;DHT22;8528;49.976;11.858;2023-04-03T07:26:42;11.90;80.20
16823;DHT22;8528;49.976;11.858;2023-04-03T07:29:10;13.00;70.90
16823;DHT22;8528;49.976;11.858;2023-04-03T07:31:38;14.30;59.90
16823;DHT22;8528;49.976;11.858;2023-04-03T07:34:06;14.80;56.10
16823;DHT22;8528;49.976;11.858;2023-04-03T07:36:33;14.90;54.50
16823;DHT22;8528;49.976;11.858;2023-04-03T07:38:59;15.40;52.70
16823;DHT22;8528;49.976;11.858;2023-04-03T07:41:26;15.50;52.00
16823;DHT22;8528;49.976;11.858;2023-04-03T07:43:53;16.40;50.90
16823;DHT22;8528;49.976;11.858;2023-04-03T07:46:21;15.60;47.80
16823;DHT22;8528;49.976;11.858;2023-04-03T07:48:48;14.50;48.80
16823;DHT22;8528;49.976;11.858;2023-04-03T07:51:15;12.80;50.70
16823;DHT22;8528;49.976;11.858;2023-04-03T07:53:42;10.20;54.60
16823;DHT22;8528;49.976;11.858;2023-04-03T07:56:09;9.60;57.10
16823;DHT22;8528;49.976;11.858;2023-04-03T07:58:36;8.40;59.60
16823;DHT22;8528;49.976;11.858;2023-04-03T08:01:04;8.10;60.00
16823;DHT22;8528;49.976;11.858;2023-04-03T08:03:30;8.10;62.10
16823;DHT22;8528;49.976;11.858;2023-04-03T08:06:05;9.60;62.10
16823;DHT22;8528;49.976;11.858;2023-04-03T08:08:41;10.90;58.70
16823;DHT22;8528;49.976;11.858;2023-04-03T08:11:09;11.80;57.30
16823;DHT22;8528;49.976;11.858;2023-04-03T08:13:36;11.50;58.20
16823;DHT22;8528;49.976;11.858;2023-04-03T08:16:16;12.60;55.20
16823;DHT22;8528;49.976;11.858;2023-04-03T08:18:43;14.70;53.50
16823;DHT22;8528;49.976;11.858;2023-04-03T08:21:11;15.10;48.10
16823;DHT22;8528;49.976;11.858;2023-04-03T08:23:39;14.90;49.70
16823;DHT22;8528;49.976;11.858;2023-04-03T08:26:15;14.40;48.40
16823;DHT22;8528;49.976;11.858;2023-04-03T08:28:43;12.90;50.20
16823;DHT22;8528;49.976;11.858;2023-04-03T08:31:12;12.70;51.20
16823;DHT22;8528;49.976;11.858;2023-04-03T08:33:40;12.80;51.70
16823;DHT22;8528;49.976;11.858;2023-04-03T08:36:15;12.20;52.70
16823;DHT22;8528;49.976;11.858;2023-04-03T08:38:43;12.20;52.50
16823;DHT22;8528;49.976;11.858;2023-04-03T08:41:32;13.50;50.00
16823;DHT22;8528;49.976;11.858;2023-04-03T08:44:38;13.70;48.10
16823;DHT22;8528;49.976;11.858;2023-04-03T08:49:43;11.60;49.40
16823;DHT22;8528;49.976;11.858;2023-04-03T08:52:18;10.80;50.90
16823;DHT22;8528;49.976;11.858;2023-04-03T08:54:52;11.20;53.30
16823;DHT22;8528;49.976;11.858;2023-04-03T08:57:30;12.90;50.60
16823;DHT22;8528;49.976;11.858;2023-04-03T09:00:00;13.10;47.20
16823;DHT22;8528;49.976;11.858;2023-04-03T09:02:42;12.50;46.10
16823;DHT22;8528;49.976;11.858;2023-04-03T09:05:13;11.50;49.20
16823;DHT22;8528;49.976;11.858;2023-04-03T09:08:33;11.80;50.60
16823;DHT22;8528;49.976;11.858;2023-04-03T09:14:23;13.70;46.10
16823;DHT22;8528;49.976;11.858;2023-04-03T09:16:56;12.90;46.90
16823;DHT22;8528;49.976;11.858;2023-04-03T09:19:37;12.40;47.70
16823;DHT22;8528;49.976;11.858;2023-04-03T09:22:21;11.30;50.50
16823;DHT22;8528;49.976;11.858;2023-04-03T09:25:02;11.80;51.90
16823;DHT22;8528;49.976;11.858;2023-04-03T09:27:30;12.80;48.70
16823;DHT22;8528;49.976;11.858;2023-04-03T09:29:58;13.40;47.00
16823;DHT22;8528;49.976;11.858;2023-04-03T09:32:35;13.80;46.20
16823;DHT22;8528;49.976;11.858;2023-04-03T09:40:40;16.10;42.80
16823;DHT22;8528;49.976;11.858;2023-04-03T09:43:21;17.00;40.60
16823;DHT22;8528;49.976;11.858;2023-04-03T09:45:50;18.70;39.30
16823;DHT22;8528;49.976;11.858;2023-04-03T09:48:25;20.40;36.80
16823;DHT22;8528;49.976;11.858;2023-04-03T09:50:55;19.40;36.70
16823;DHT22;8528;49.976;11.858;2023-04-03T09:53:37;18.20;38.30
16823;DHT22;8528;49.976;11.858;2023-04-03T09:58:51;17.10;40.60
16823;DHT22;8528;49.976;11.858;2023-04-03T10:01:36;17.70;40.70
16823;DHT22;8528;49.976;11.858;2023-04-03T10:04:15;19.60;38.70
16823;DHT22;8528;49.976;11.858;2023-04-03T10:06:48;21.00;34.30
16823;DHT22;8528;49.976;11.858;2023-04-03T10:09:22;20.60;32.60
16823;DHT22;8528;49.976;11.858;2023-04-03T10:14:34;18.90;34.00
16823;DHT22;8528;49.976;11.858;2023-04-03T10:24:51;20.80;34.40
16823;DHT22;8528;49.976;11.858;2023-04-03T10:27:34;20.80;33.20
16823;DHT22;8528;49.976;11.858;2023-04-03T10:36:10;20.20;36.00
16823;DHT22;8528;49.976;11.858;2023-04-03T10:47:34;22.20;32.90
16823;DHT22;8528;49.976;11.858;2023-04-03T10:58:38;17.40;37.60
16823;DHT22;8528;49.976;11.858;2023-04-03T11:01:09;17.30;37.30
16823;DHT22;8528;49.976;11.858;2023-04-03T11:03:45;16.20;39.70
16823;DHT22;8528;49.976;11.858;2023-04-03T11:06:15;15.20;41.10
16823;DHT22;8528;49.976;11.858;2023-04-03T11:09:19;15.30;41.90
16823;DHT22;8528;49.976;11.858;2023-04-03T11:11:48;17.10;41.10
16823;DHT22;8528;49.976;11.858;2023-04-03T11:14:28;18.20;36.80
16823;DHT22;8528;49.976;11.858;2023-04-03T11:19:59;21.20;32.90
16823;DHT22;8528;49.976;11.858;2023-04-03T11:22:34;22.80;31.00
16823;DHT22;8528;49.976;11.858;2023-04-03T11:25:15;21.50;31.50
16823;DHT22;8528;49.976;11.858;2023-04-03T11:28:00;21.70;31.20
16823;DHT22;8528;49.976;11.858;2023-04-03T11:35:33;21.60;32.70
16823;DHT22;8528;49.976;11.858;2023-04-03T11:38:03;22.40;31.20
16823;DHT22;8528;49.976;11.858;2023-04-03T11:40:34;20.70;31.80
16823;DHT22;8528;49.976;11.858;2023-04-03T11:43:07;19.50;35.40
16823;DHT22;8528;49.976;11.858;2023-04-03T11:45:37;18.00;34.30
16823;DHT22;8528;49.976;11.858;2023-04-03T11:50:49;20.00;34.00
16823;DHT22;8528;49.976;11.858;2023-04-03T11:58:26;20.90;32.00
16823;DHT22;8528;49.976;11.858;2023-04-03T12:00:56;22.00;31.60
16823;DHT22;8528;49.976;11.858;2023-04-03T12:16:27;20.30;33.70
16823;DHT22;8528;49.976;11.858;2023-04-03T12:29:28;20.80;32.50
16823;DHT22;8528;49.976;11.858;2023-04-03T12:41:27;18.20;37.00
16823;DHT22;8528;49.976;11.858;2023-04-03T12:46:48;17.50;36.20
16823;DHT22;8528;49.976;11.858;2023-04-03T12:49:41;18.00;36.60
16823;DHT22;8528;49.976;11.858;2023-04-03T12:55:16;16.50;35.60
16823;DHT22;8528;49.976;11.858;2023-04-03T12:57:43;17.70;36.10
16823;DHT22;8528;49.976;11.858;2023-04-03T13:00:31;19.50;33.00
16823;DHT22;8528;49.976;11.858;2023-04-03T13:03:02;20.00;31.90
16823;DHT22;8528;49.976;11.858;2023-04-03T13:05:38;18.40;34.40
16823;DHT22;8528;49.976;11.858;2023-04-03T13:08:10;15.80;37.10
16823;DHT22;8528;49.976;11.858;2023-04-03T13:11:10;14.60;42.00
16823;DHT22;8528;49.976;11.858;2023-04-03T13:13:38;15.40;39.90
16823;DHT22;8528;49.976;11.858;2023-04-03T13:16:11;16.30;37.10
16823;DHT22;8528;49.976;11.858;2023-04-03T13:18:38;17.00;36.90
16823;DHT22;8528;49.976;11.858;2023-04-03T13:21:10;17.30;37.00
16823;DHT22;8528;49.976;11.858;2023-04-03T13:23:43;16.10;36.60
16823;DHT22;8528;49.976;11.858;2023-04-03T13:26:11;14.30;40.60
16823;DHT22;8528;49.976;11.858;2023-04-03T13:28:39;13.70;42.00
16823;DHT22;8528;49.976;11.858;2023-04-03T13:33:54;12.50;42.90
16823;DHT22;8528;49.976;11.858;2023-04-03T13:36:30;12.90;42.20
16823;DHT22;8528;49.976;11.858;2023-04-03T13:41:47;11.70;44.50
16823;DHT22;8528;49.976;11.858;2023-04-03T13:46:56;10.60;47.40
16823;DHT22;8528;49.976;11.858;2023-04-03T13:49:36;11.00;48.70
16823;DHT22;8528;49.976;11.858;2023-04-03T13:52:32;11.00;49.00
16823;DHT22;8528;49.976;11.858;2023-04-03T13:58:21;9.80;48.20
16823;DHT22;8528;49.976;11.858;2023-04-03T14:03:29;9.30;50.10
16823;DHT22;8528;49.976;11.858;2023-04-03T14:05:56;8.80;51.90
16823;DHT22;8528;49.976;11.858;2023-04-03T14:08:45;8.50;51.40
16823;DHT22;8528;49.976;11.858;2023-04-03T14:11:17;8.00;51.20
16823;DHT22;8528;49.976;11.858;2023-04-03T14:13:46;7.90;54.10
16823;DHT22;8528;49.976;11.858;2023-04-03T14:16:15;7.90;54.00
16823;DHT22;8528;49.976;11.858;2023-04-03T14:18:44;7.90;53.50
16823;DHT22;8528;49.976;11.858;2023-04-03T14:21:14;7.80;53.70
16823;DHT22;8528;49.976;11.858;2023-04-03T14:23:41;7.70;55.40
16823;DHT22;8528;49.976;11.858;2023-04-03T14:26:20;7.60;55.80
16823;DHT22;8528;49.976;11.858;2023-04-03T14:28:52;7.60;55.10
16823;DHT22;8528;49.976;11.858;2023-04-03T14:31:21;7.70;53.00
16823;DHT22;8528;49.976;11.858;2023-04-03T14:33:48;7.90;53.20
16823;DHT22;8528;49.976;11.858;2023-04-03T14:36:18;7.00;51.90
16823;DHT22;8528;49.976;11.858;2023-04-03T14:38:48;6.50;53.70
16823;DHT22;8528;49.976;11.858;2023-04-03T14:41:18;6.50;57.20
16823;DHT22;8528;49.976;11.858;2023-04-03T14:43:46;6.30;59.00
16823;DHT22;8528;49.976;11.858;2023-04-03T14:46:19;6.30;59.70
16823;DHT22;8528;49.976;11.858;2023-04-03T14:48:47;6.40;59.60
16823;DHT22;8528;49.976;11.858;2023-04-03T14:51:15;6.40;60.20
16823;DHT22;8528;49.976;11.858;2023-04-03T14:53:43;6.20;59.50
16823;DHT22;8528;49.976;11.858;2023-04-03T14:56:23;6.10;60.30
16823;DHT22;8528;49.976;11.858;2023-04-03T14:58:53;6.10;60.70
16823;DHT22;8528;49.976;11.858;2023-04-03T15:01:22;6.20;60.00
16823;DHT22;8528;49.976;11.858;2023-04-03T15:03:48;6.30;60.60
16823;DHT22;8528;49.976;11.858;2023-04-03T15:06:16;6.60;60.40
16823;DHT22;8528;49.976;11.858;2023-04-03T15:08:44;6.60;60.00
16823;DHT22;8528;49.976;11.858;2023-04-03T15:11:12;6.80;60.70
16823;DHT22;8528;49.976;11.858;2023-04-03T15:13:39;6.60;58.90
16823;DHT22;8528;49.976;11.858;2023-04-03T15:16:14;6.10;58.70
16823;DHT22;8528;49.976;11.858;2023-04-03T15:18:42;5.60;58.50
16823;DHT22;8528;49.976;11.858;2023-04-03T15:21:10;5.10;59.70
16823;DHT22;8528;49.976;11.858;2023-04-03T15:23:37;5.00;62.30
16823;DHT22;8528;49.976;11.858;2023-04-03T15:26:04;5.00;62.50
16823;DHT22;8528;49.976;11.858;2023-04-03T15:28:39;5.10;63.30
16823;DHT22;8528;49.976;11.858;2023-04-03T15:31:07;5.00;62.40
16823;DHT22;8528;49.976;11.858;2023-04-03T15:33:35;4.70;62.00
16823;DHT22;8528;49.976;11.858;2023-04-03T15:36:04;4.60;62.60
16823;DHT22;8528;49.976;11.858;2023-04-03T15:39:07;4.70;62.50
16823;DHT22;8528;49.976;11.858;2023-04-03T15:41:34;5.00;62.60
16823;DHT22;8528;49.976;11.858;2023-04-03T15:44:01;5.10;61.70
16823;DHT22;8528;49.976;11.858;2023-04-03T15:46:27;5.00;60.70
16823;DHT22;8528;49.976;11.858;2023-04-03T15:48:55;4.90;60.70
16823;DHT22;8528;49.976;11.858;2023-04-03T15:51:22;4.90;60.20
16823;DHT22;8528;49.976;11.858;2023-04-03T15:53:48;4.90;61.40
16823;DHT22;8528;49.976;11.858;2023-04-03T15:56:15;4.80;60.50
16823;DHT22;8528;49.976;11.858;2023-04-03T15:58:42;4.70;60.10
16823;DHT22;8528;49.976;11.858;2023-04-03T16:01:10;4.60;59.20
16823;DHT22;8528;49.976;11.858;2023-04-03T16:03:40;4.50;59.40
16823;DHT22;8528;49.976;11.858;2023-04-03T16:06:16;4.50;61.60
16823;DHT22;8528;49.976;11.858;2023-04-03T16:08:46;4.60;63.10
16823;DHT22;8528;49.976;11.858;2023-04-03T16:11:13;4.70;62.20
16823;DHT22;8528;49.976;11.858;2023-04-03T16:13:40;4.50;60.30
16823;DHT22;8528;49.976;11.858;2023-04-03T16:16:07;4.30;61.50
16823;DHT22;8528;49.976;11.858;2023-04-03T16:18:35;4.10;60.30
16823;DHT22;8528;49.976;11.858;2023-04-03T16:21:02;4.00;62.00
16823;DHT22;8528;49.976;11.858;2023-04-03T16:23:29;4.10;63.10
16823;DHT22;8528;49.976;11.858;2023-04-03T16:25:56;4.20;62.80
16823;DHT22;8528;49.976;11.858;2023-04-03T16:28:23;4.10;62.10
16823;DHT22;8528;49.976;11.858;2023-04-03T16:30:51;4.00;63.10
16823;DHT22;8528;49.976;11.858;2023-04-03T16:33:18;4.00;63.90
16823;DHT22;8528;49.976;11.858;2023-04-03T16:35:48;4.00;64.60
16823;DHT22;8528;49.976;11.858;2023-04-03T16:38:16;4.00;65.50
16823;DHT22;8528;49.976;11.858;2023-04-03T16:40:43;4.00;64.80
16823;DHT22;8528;49.976;11.858;2023-04-03T16:43:10;4.00;65.20
16823;DHT22;8528;49.976;11.858;2023-04-03T16:45:37;3.70;63.40
16823;DHT22;8528;49.976;11.858;2023-04-03T16:48:04;3.50;63.50
16823;DHT22;8528;49.976;11.858;2023-04-03T16:50:32;3.40;65.20
16823;DHT22;8528;49.976;11.858;2023-04-03T16:52:59;3.50;66.10
16823;DHT22;8528;49.976;11.858;2023-04-03T16:55:26;3.40;64.80
16823;DHT22;8528;49.976;11.858;2023-04-03T16:57:53;3.40;65.90
16823;DHT22;8528;49.976;11.858;2023-04-03T17:00:22;3.20;65.20
16823;DHT22;8528;49.976;11.858;2023-04-03T17:02:56;3.10;65.60
16823;DHT22;8528;49.976;11.858;2023-04-03T17:05:23;2.90;66.00
16823;DHT22;8528;49.976;11.858;2023-04-03T17:07:50;2.70;66.40
16823;DHT22;8528;49.976;11.858;2023-04-03T17:10:20;2.60;67.10
16823;DHT22;8528;49.976;11.858;2023-04-03T17:12:48;2.60;66.80
16823;DHT22;8528;49.976;11.858;2023-04-03T17:15:15;2.50;67.80
16823;DHT22;8528;49.976;11.858;2023-04-03T17:17:42;2.50;68.40
16823;DHT22;8528;49.976;11.858;2023-04-03T17:20:09;2.50;68.20
16823;DHT22;8528;49.976;11.858;2023-04-03T17:22:36;2.60;68.80
16823;DHT22;8528;49.976;11.858;2023-04-03T17:25:03;2.60;68.80
16823;DHT22;8528;49.976;11.858;2023-04-03T17:27:30;2.60;68.60
16823;DHT22;8528;49.976;11.858;2023-04-03T17:29:57;2.50;69.40
16823;DHT22;8528;49.976;11.858;2023-04-03T17:32:25;2.50;70.30
16823;DHT22;8528;49.976;11.858;2023-04-03T17:34:52;2.50;68.80
16823;DHT22;8528;49.976;11.858;2023-04-03T17:37:19;2.40;69.20
16823;DHT22;8528;49.976;11.858;2023-04-03T17:39:46;2.40;69.00
16823;DHT22;8528;49.976;11.858;2023-04-03T17:42:12;2.40;68.50
16823;DHT22;8528;49.976;11.858;2023-04-03T17:44:39;2.30;69.70
16823;DHT22;8528;49.976;11.858;2023-04-03T17:47:06;2.30;70.80
16823;DHT22;8528;49.976;11.858;2023-04-03T17:49:33;2.30;70.10
16823;DHT22;8528;49.976;11.858;2023-04-03T17:52:00;2.20;69.50
16823;DHT22;8528;49.976;11.858;2023-04-03T17:54:27;2.10;70.60
16823;DHT22;8528;49.976;11.858;2023-04-03T17:56:54;2.10;71.90
16823;DHT22;8528;49.976;11.858;2023-04-03T17:59:21;2.20;72.30
16823;DHT22;8528;49.976;11.858;2023-04-03T18:01:47;2.20;71.20
16823;DHT22;8528;49.976;11.858;2023-04-03T18:04:14;2.10;71.50